Time;durP1;ratioP1;P1;durP2;ratioP2;P2;SDS_P1;SDS_P2;PMS_P1;PMS_P2;Temp;Humidity;BMP_temperature;BMP_pressure;BME280_temperature;BME280_humidity;BME280_pressure;Samples;Min_cycle;Max_cycle;Signal;HPM_P1;HPM_P2
2023/06/20 00:02:30;;;;;;;;;;;20.00;99.90;;;;;;5022464;28;19934;-66
2023/06/20 00:05:03;;;;;;;;;;;20.10;99.90;;;;;;5018843;28;19930;-66
2023/06/20 00:07:35;;;;;;;;;;;20.10;99.90;;;;;;5033155;28;20409;-66
2023/06/20 00:10:08;;;;;;;;;;;20.00;99.90;;;;;;5028889;28;19940;-66
2023/06/20 00:12:40;;;;;;;;;;;19.80;99.90;;;;;;5029102;28;20282;-66
2023/06/20 00:15:12;;;;;;;;;;;19.80;99.90;;;;;;5026933;28;19972;-66
2023/06/20 00:17:44;;;;;;;;;;;19.80;99.90;;;;;;5026045;28;19925;-65
2023/06/20 00:20:16;;;;;;;;;;;19.80;99.90;;;;;;5027474;28;19929;-66
2023/06/20 00:22:50;;;;;;;;;;;19.70;99.90;;;;;;5027828;28;20312;-66
2023/06/20 00:25:22;;;;;;;;;;;19.70;99.90;;;;;;5031644;28;19925;-66
2023/06/20 00:27:54;;;;;;;;;;;19.70;99.90;;;;;;5029326;28;20393;-66
2023/06/20 00:30:26;;;;;;;;;;;19.70;99.90;;;;;;5031969;28;19929;-66
2023/06/20 00:32:58;;;;;;;;;;;19.60;99.90;;;;;;5024274;28;19925;-66
2023/06/20 00:35:30;;;;;;;;;;;19.60;99.90;;;;;;5023782;28;19925;-66
2023/06/20 00:38:02;;;;;;;;;;;19.50;99.90;;;;;;5021778;28;20404;-66
2023/06/20 00:40:33;;;;;;;;;;;19.40;99.90;;;;;;5024194;28;19936;-66
2023/06/20 00:43:00;;;;;;;;;;;19.40;99.90;;;;;;5027275;28;19936;-66
2023/06/20 00:45:34;;;;;;;;;;;19.30;99.90;;;;;;5041403;28;19929;-66
2023/06/20 00:48:03;;;;;;;;;;;19.20;99.90;;;;;;5026008;28;19929;-66
2023/06/20 00:50:35;;;;;;;;;;;19.20;99.90;;;;;;5024889;28;19929;-66
2023/06/20 00:53:07;;;;;;;;;;;19.30;99.90;;;;;;5026242;28;19936;-66
2023/06/20 00:55:38;;;;;;;;;;;19.40;99.90;;;;;;5029882;28;19965;-66
2023/06/20 00:58:05;;;;;;;;;;;19.40;99.90;;;;;;5019031;28;20016;-66
2023/06/20 01:00:38;;;;;;;;;;;19.40;99.90;;;;;;5029341;28;19991;-66
2023/06/20 01:03:12;;;;;;;;;;;19.40;99.90;;;;;;5020845;28;19929;-66
2023/06/20 01:05:51;;;;;;;;;;;19.40;99.90;;;;;;5027281;28;19925;-66
2023/06/20 01:08:30;;;;;;;;;;;19.30;99.90;;;;;;5022856;28;20093;-66
2023/06/20 01:11:10;;;;;;;;;;;19.40;99.90;;;;;;5023509;28;19926;-66
2023/06/20 01:13:42;;;;;;;;;;;19.30;99.90;;;;;;5021784;28;19965;-66
2023/06/20 01:16:24;;;;;;;;;;;19.30;99.90;;;;;;5021824;28;19926;-66
2023/06/20 01:19:14;;;;;;;;;;;19.20;99.90;;;;;;5019562;28;20019;-66
2023/06/20 01:21:52;;;;;;;;;;;19.20;99.90;;;;;;5016838;28;20320;-66
2023/06/20 01:24:35;;;;;;;;;;;19.20;99.90;;;;;;5019248;28;20302;-66
2023/06/20 01:27:29;;;;;;;;;;;19.10;99.90;;;;;;5019841;28;19933;-66
2023/06/20 01:30:10;;;;;;;;;;;19.00;99.90;;;;;;5027221;28;20018;-66
2023/06/20 01:32:44;;;;;;;;;;;18.90;99.90;;;;;;5026871;28;19925;-66
2023/06/20 01:35:19;;;;;;;;;;;18.70;99.90;;;;;;5021364;28;20023;-66
2023/06/20 01:37:52;;;;;;;;;;;18.60;99.90;;;;;;5025956;28;20304;-66
2023/06/20 01:40:20;;;;;;;;;;;18.60;99.90;;;;;;5011809;28;20032;-66
2023/06/20 01:42:58;;;;;;;;;;;18.60;99.90;;;;;;5025648;28;19932;-66
2023/06/20 01:45:32;;;;;;;;;;;18.70;99.90;;;;;;5019699;28;19929;-66
2023/06/20 01:48:00;;;;;;;;;;;18.80;99.90;;;;;;5030069;28;19936;-66
2023/06/20 01:50:32;;;;;;;;;;;18.90;99.90;;;;;;5014014;28;19932;-66
2023/06/20 01:53:05;;;;;;;;;;;18.90;99.90;;;;;;5017202;28;19929;-66
2023/06/20 01:55:37;;;;;;;;;;;19.00;99.90;;;;;;5019424;28;20414;-66
2023/06/20 01:58:10;;;;;;;;;;;19.10;99.90;;;;;;5019727;28;19929;-66
2023/06/20 02:00:37;;;;;;;;;;;19.20;99.90;;;;;;5029191;28;19929;-66
2023/06/20 02:03:10;;;;;;;;;;;19.30;99.90;;;;;;5021934;28;19929;-66
2023/06/20 02:05:39;;;;;;;;;;;19.30;99.90;;;;;;5027970;28;19925;-66
2023/06/20 02:08:12;;;;;;;;;;;19.30;99.90;;;;;;5028506;28;20405;-65
2023/06/20 02:10:43;;;;;;;;;;;19.30;99.90;;;;;;5026379;28;19926;-65
2023/06/20 02:13:15;;;;;;;;;;;19.40;99.90;;;;;;5029594;28;19964;-65
2023/06/20 02:15:48;;;;;;;;;;;19.40;99.90;;;;;;5022077;28;19965;-66
2023/06/20 02:18:15;;;;;;;;;;;19.40;99.90;;;;;;5017255;28;20376;-66
2023/06/20 02:20:49;;;;;;;;;;;19.40;99.90;;;;;;5019246;28;19935;-66
2023/06/20 02:23:27;;;;;;;;;;;19.40;99.90;;;;;;5027044;28;19925;-66
2023/06/20 02:26:10;;;;;;;;;;;19.40;99.90;;;;;;5037794;28;19933;-66
2023/06/20 02:28:39;;;;;;;;;;;19.40;99.90;;;;;;5021379;28;20023;-66
2023/06/20 02:31:09;;;;;;;;;;;19.40;99.90;;;;;;5026905;28;19940;-66
2023/06/20 02:33:41;;;;;;;;;;;19.50;99.90;;;;;;5025996;28;19936;-66
2023/06/20 02:36:13;;;;;;;;;;;19.50;99.90;;;;;;5015585;28;19926;-66
2023/06/20 02:38:45;;;;;;;;;;;19.50;99.90;;;;;;5011920;28;19953;-66
2023/06/20 02:41:12;;;;;;;;;;;19.60;99.90;;;;;;5026080;28;19929;-66
2023/06/20 02:43:44;;;;;;;;;;;19.50;99.90;;;;;;5033925;28;20416;-66
2023/06/20 02:46:19;;;;;;;;;;;19.60;99.90;;;;;;5022250;28;19925;-66
2023/06/20 02:49:03;;;;;;;;;;;19.60;99.90;;;;;;5033384;28;19930;-66
2023/06/20 02:51:43;;;;;;;;;;;19.60;99.90;;;;;;5027153;28;19925;-66
2023/06/20 02:54:17;;;;;;;;;;;19.60;99.90;;;;;;5004400;28;20024;-66
2023/06/20 02:56:47;;;;;;;;;;;19.50;99.90;;;;;;5020046;28;19940;-66
2023/06/20 02:59:21;;;;;;;;;;;19.50;99.90;;;;;;5026662;28;19925;-66
2023/06/20 03:01:56;;;;;;;;;;;19.50;99.90;;;;;;5026101;28;19926;-66
2023/06/20 03:04:25;;;;;;;;;;;19.40;99.90;;;;;;5027327;28;19925;-66
2023/06/20 03:06:58;;;;;;;;;;;19.50;99.90;;;;;;5029427;28;20295;-66
2023/06/20 03:09:31;;;;;;;;;;;19.50;99.90;;;;;;5026279;28;19930;-66
2023/06/20 03:11:58;;;;;;;;;;;19.50;99.90;;;;;;5025340;28;20407;-66
2023/06/20 03:14:31;;;;;;;;;;;19.50;99.90;;;;;;5023282;28;19940;-66
2023/06/20 03:16:59;;;;;;;;;;;19.50;99.90;;;;;;5022864;28;19968;-66
2023/06/20 03:19:32;;;;;;;;;;;19.50;99.90;;;;;;5031056;28;19937;-66
2023/06/20 03:22:08;;;;;;;;;;;19.50;99.90;;;;;;5030363;28;19936;-66
2023/06/20 03:24:35;;;;;;;;;;;19.50;99.90;;;;;;5015501;28;19929;-66
2023/06/20 03:27:07;;;;;;;;;;;19.60;99.90;;;;;;5017706;28;20024;-66
2023/06/20 03:29:34;;;;;;;;;;;19.60;99.90;;;;;;5030989;28;19929;-66
2023/06/20 03:32:06;;;;;;;;;;;19.60;99.90;;;;;;5028764;28;19940;-66
2023/06/20 03:34:38;;;;;;;;;;;19.60;99.90;;;;;;5014557;28;20007;-66
2023/06/20 03:37:10;;;;;;;;;;;19.60;99.90;;;;;;5026087;28;19929;-66
2023/06/20 03:39:42;;;;;;;;;;;19.60;99.90;;;;;;5041717;28;20317;-66
2023/06/20 03:42:14;;;;;;;;;;;19.60;99.90;;;;;;5028485;28;19929;-66
2023/06/20 03:44:45;;;;;;;;;;;19.60;99.90;;;;;;5023800;28;19936;-66
2023/06/20 03:47:18;;;;;;;;;;;19.60;99.90;;;;;;5030136;28;19983;-66
2023/06/20 03:49:52;;;;;;;;;;;19.60;99.90;;;;;;5026063;28;19933;-66
2023/06/20 03:52:24;;;;;;;;;;;19.60;99.90;;;;;;5031231;28;19933;-66
2023/06/20 03:54:56;;;;;;;;;;;19.70;99.90;;;;;;5030022;28;20312;-66
2023/06/20 03:57:27;;;;;;;;;;;19.70;99.90;;;;;;5024443;28;19925;-66
2023/06/20 03:59:59;;;;;;;;;;;19.70;99.90;;;;;;5029003;28;19936;-66
2023/06/20 04:02:28;;;;;;;;;;;19.70;99.90;;;;;;5032137;28;19975;-66
2023/06/20 04:04:56;;;;;;;;;;;19.70;99.90;;;;;;5028092;28;19925;-66
2023/06/20 04:07:31;;;;;;;;;;;19.80;99.90;;;;;;5028170;28;19929;-67
2023/06/20 04:10:04;;;;;;;;;;;19.80;99.90;;;;;;5027755;28;19964;-66
2023/06/20 04:12:30;;;;;;;;;;;19.80;99.90;;;;;;5031373;28;19983;-66
2023/06/20 04:15:02;;;;;;;;;;;19.80;99.90;;;;;;5030122;28;20412;-66
2023/06/20 04:17:29;;;;;;;;;;;19.80;99.90;;;;;;5026552;28;20301;-66
2023/06/20 04:19:55;;;;;;;;;;;19.80;99.90;;;;;;5029266;28;19929;-66
2023/06/20 04:22:27;;;;;;;;;;;19.80;99.90;;;;;;5010864;28;20389;-66
2023/06/20 04:24:59;;;;;;;;;;;19.70;99.90;;;;;;5021843;28;19926;-66
2023/06/20 04:27:31;;;;;;;;;;;19.80;99.90;;;;;;5023628;28;19930;-66
2023/06/20 04:30:04;;;;;;;;;;;19.80;99.90;;;;;;5023156;28;19932;-66
2023/06/20 04:32:37;;;;;;;;;;;19.80;99.90;;;;;;5031650;28;19932;-66
2023/06/20 04:35:05;;;;;;;;;;;19.80;99.90;;;;;;5024803;28;20381;-66
2023/06/20 04:37:38;;;;;;;;;;;19.80;99.90;;;;;;5022400;28;19933;-66
2023/06/20 04:40:07;;;;;;;;;;;19.80;99.90;;;;;;5025832;28;20453;-66
2023/06/20 04:42:39;;;;;;;;;;;19.90;99.90;;;;;;5028972;28;20439;-66
2023/06/20 04:45:07;;;;;;;;;;;20.00;99.90;;;;;;5013328;28;20032;-66
2023/06/20 04:47:41;;;;;;;;;;;20.20;99.90;;;;;;5028113;28;19960;-65
2023/06/20 04:50:13;;;;;;;;;;;20.20;99.90;;;;;;5028607;28;19932;-66
2023/06/20 04:52:45;;;;;;;;;;;20.30;99.90;;;;;;5019909;28;19957;-66
2023/06/20 04:55:16;;;;;;;;;;;20.30;99.90;;;;;;5024235;28;20309;-65
2023/06/20 04:57:43;;;;;;;;;;;20.30;99.90;;;;;;5029118;28;20006;-65
2023/06/20 05:00:15;;;;;;;;;;;20.20;99.90;;;;;;5007738;28;19929;-66
2023/06/20 05:02:47;;;;;;;;;;;20.20;99.90;;;;;;5026239;28;20020;-65
2023/06/20 05:05:15;;;;;;;;;;;20.00;99.90;;;;;;5021315;28;19948;-66
2023/06/20 05:07:44;;;;;;;;;;;20.00;99.90;;;;;;5011669;28;19933;-65
2023/06/20 05:10:11;;;;;;;;;;;20.00;99.90;;;;;;5028847;28;19933;-65
2023/06/20 05:12:43;;;;;;;;;;;20.00;99.90;;;;;;5026779;28;19936;-65
2023/06/20 05:15:14;;;;;;;;;;;20.10;99.90;;;;;;5027646;28;19932;-65
2023/06/20 05:17:46;;;;;;;;;;;20.00;99.90;;;;;;5011988;28;19925;-65
2023/06/20 05:20:18;;;;;;;;;;;20.10;99.90;;;;;;5012052;28;21219;-65
2023/06/20 05:22:45;;;;;;;;;;;20.10;99.90;;;;;;5027801;28;19935;-66
2023/06/20 05:25:17;;;;;;;;;;;20.10;99.90;;;;;;5027180;28;19932;-65
2023/06/20 05:27:49;;;;;;;;;;;20.20;99.90;;;;;;5026585;28;19929;-66
2023/06/20 05:30:21;;;;;;;;;;;20.20;99.90;;;;;;5028293;28;19936;-66
2023/06/20 05:32:53;;;;;;;;;;;20.10;99.90;;;;;;5024082;28;19930;-66
2023/06/20 05:35:20;;;;;;;;;;;20.20;99.90;;;;;;5026907;28;19965;-66
2023/06/20 05:37:51;;;;;;;;;;;20.20;99.90;;;;;;5027449;28;20032;-66
2023/06/20 05:40:23;;;;;;;;;;;20.00;99.90;;;;;;5025273;28;20357;-66
2023/06/20 05:42:50;;;;;;;;;;;19.90;99.90;;;;;;5028216;28;19925;-67
2023/06/20 05:45:22;;;;;;;;;;;19.90;99.90;;;;;;5025541;28;19933;-66
2023/06/20 05:47:54;;;;;;;;;;;19.90;99.90;;;;;;5011985;28;19925;-66
2023/06/20 05:50:22;;;;;;;;;;;19.90;99.90;;;;;;5026870;28;19963;-66
2023/06/20 05:52:49;;;;;;;;;;;19.90;99.90;;;;;;5022240;28;19932;-67
2023/06/20 05:55:20;;;;;;;;;;;19.90;99.90;;;;;;5026548;28;19925;-66
2023/06/20 05:57:52;;;;;;;;;;;20.00;99.90;;;;;;5006341;28;19933;-67
2023/06/20 06:00:24;;;;;;;;;;;20.00;99.90;;;;;;5024754;28;19932;-67
2023/06/20 06:02:56;;;;;;;;;;;20.00;99.90;;;;;;5023374;28;19929;-67
2023/06/20 06:05:29;;;;;;;;;;;20.00;99.90;;;;;;5030212;28;19932;-67
2023/06/20 06:08:00;;;;;;;;;;;20.10;99.90;;;;;;5026423;28;19925;-67
2023/06/20 06:10:32;;;;;;;;;;;20.10;99.90;;;;;;5021615;28;19926;-66
2023/06/20 06:12:59;;;;;;;;;;;20.20;99.90;;;;;;5024661;28;19933;-67
2023/06/20 06:15:27;;;;;;;;;;;20.30;99.90;;;;;;5029711;28;20395;-67
2023/06/20 06:17:54;;;;;;;;;;;20.40;99.90;;;;;;5017734;28;19983;-66
2023/06/20 06:20:25;;;;;;;;;;;20.50;99.90;;;;;;5016105;28;19961;-67
2023/06/20 06:22:57;;;;;;;;;;;20.50;99.90;;;;;;5016397;28;19935;-67
2023/06/20 06:25:29;;;;;;;;;;;20.60;99.90;;;;;;5029179;28;20308;-67
2023/06/20 06:28:01;;;;;;;;;;;20.70;99.90;;;;;;5023659;28;19948;-67
2023/06/20 06:30:28;;;;;;;;;;;20.80;99.90;;;;;;5026258;28;20341;-67
2023/06/20 06:32:54;;;;;;;;;;;20.90;99.90;;;;;;5021703;28;20023;-67
2023/06/20 06:35:26;;;;;;;;;;;21.00;99.90;;;;;;5019785;28;19936;-67
2023/06/20 06:37:54;;;;;;;;;;;21.00;99.90;;;;;;5023568;28;20633;-67
2023/06/20 06:40:26;;;;;;;;;;;21.10;99.90;;;;;;5021510;28;20390;-66
2023/06/20 06:42:53;;;;;;;;;;;21.10;99.90;;;;;;5018297;28;19965;-67
2023/06/20 06:45:27;;;;;;;;;;;21.10;99.90;;;;;;5014792;28;19926;-66
2023/06/20 06:47:59;;;;;;;;;;;21.10;99.90;;;;;;5032632;28;20401;-67
2023/06/20 06:50:31;;;;;;;;;;;21.20;99.90;;;;;;5026697;28;20181;-67
2023/06/20 06:53:03;;;;;;;;;;;21.20;99.90;;;;;;5029379;28;19929;-67
2023/06/20 06:55:35;;;;;;;;;;;21.30;99.90;;;;;;5029757;28;20016;-66
2023/06/20 06:58:06;;;;;;;;;;;21.30;99.90;;;;;;5022080;28;19930;-66
2023/06/20 07:00:38;;;;;;;;;;;21.30;99.90;;;;;;5031810;28;19929;-67
2023/06/20 07:03:11;;;;;;;;;;;21.50;99.90;;;;;;5030356;28;19992;-67
2023/06/20 07:05:37;;;;;;;;;;;21.60;99.90;;;;;;5032413;28;20386;-67
2023/06/20 07:08:04;;;;;;;;;;;21.70;99.90;;;;;;5030639;28;20023;-66
2023/06/20 07:10:31;;;;;;;;;;;21.80;99.90;;;;;;5031797;28;19932;-67
2023/06/20 07:13:05;;;;;;;;;;;21.90;99.90;;;;;;5025291;28;20011;-67
2023/06/20 07:15:32;;;;;;;;;;;22.00;99.90;;;;;;5026137;28;20028;-67
2023/06/20 07:18:04;;;;;;;;;;;22.10;99.90;;;;;;5030285;28;19971;-66
2023/06/20 07:20:36;;;;;;;;;;;22.20;99.90;;;;;;5027342;28;20016;-66
2023/06/20 07:23:02;;;;;;;;;;;22.30;99.90;;;;;;5029075;28;20047;-66
2023/06/20 07:25:34;;;;;;;;;;;22.40;99.90;;;;;;5029959;28;19953;-66
2023/06/20 07:28:06;;;;;;;;;;;22.40;99.90;;;;;;5028529;28;19929;-66
2023/06/20 07:30:38;;;;;;;;;;;22.50;99.90;;;;;;5026542;28;19971;-66
2023/06/20 07:33:09;;;;;;;;;;;22.60;99.90;;;;;;5031586;28;19931;-66
2023/06/20 07:35:41;;;;;;;;;;;22.70;99.90;;;;;;5021829;28;20020;-66
2023/06/20 07:38:13;;;;;;;;;;;22.80;99.90;;;;;;5025320;28;19929;-66
2023/06/20 07:40:45;;;;;;;;;;;23.00;99.90;;;;;;5030686;28;19929;-66
2023/06/20 07:43:19;;;;;;;;;;;23.20;99.90;;;;;;5023253;28;19930;-66
2023/06/20 07:45:51;;;;;;;;;;;23.30;99.90;;;;;;5027834;28;19936;-66
2023/06/20 07:48:24;;;;;;;;;;;23.40;99.90;;;;;;5026482;28;20405;-66
2023/06/20 07:50:56;;;;;;;;;;;23.60;99.90;;;;;;5030537;28;19933;-66
2023/06/20 07:53:28;;;;;;;;;;;23.80;99.90;;;;;;5023716;28;19962;-66
2023/06/20 07:56:00;;;;;;;;;;;23.90;99.90;;;;;;5029068;28;19932;-66
2023/06/20 07:58:31;;;;;;;;;;;24.00;99.90;;;;;;5027695;28;19929;-66
2023/06/20 08:01:06;;;;;;;;;;;24.00;99.90;;;;;;5028466;28;20020;-66
2023/06/20 08:03:32;;;;;;;;;;;24.10;99.90;;;;;;5022362;28;20389;-66
2023/06/20 08:06:04;;;;;;;;;;;24.10;99.90;;;;;;5027952;28;19935;-66
2023/06/20 08:08:36;;;;;;;;;;;24.20;99.90;;;;;;5027466;28;19965;-67
2023/06/20 08:11:03;;;;;;;;;;;24.40;99.90;;;;;;5022573;28;20486;-66
2023/06/20 08:13:35;;;;;;;;;;;24.40;99.90;;;;;;5009704;28;19955;-66
2023/06/20 08:16:07;;;;;;;;;;;24.50;99.90;;;;;;5027196;28;20390;-66
2023/06/20 08:18:38;;;;;;;;;;;24.50;99.90;;;;;;5024196;28;19949;-66
2023/06/20 08:21:05;;;;;;;;;;;24.70;99.90;;;;;;5024127;28;20416;-66
2023/06/20 08:23:37;;;;;;;;;;;24.80;99.90;;;;;;5024516;28;19936;-66
2023/06/20 08:26:09;;;;;;;;;;;24.90;99.90;;;;;;5021058;28;19931;-66
2023/06/20 08:28:40;;;;;;;;;;;25.00;99.90;;;;;;5020498;28;19933;-66
2023/06/20 08:31:07;;;;;;;;;;;25.10;99.90;;;;;;5024666;28;19941;-66
2023/06/20 08:33:39;;;;;;;;;;;25.20;99.90;;;;;;5027660;28;19980;-67
2023/06/20 08:36:11;;;;;;;;;;;25.30;99.90;;;;;;5022705;28;19929;-66
2023/06/20 08:38:38;;;;;;;;;;;25.50;99.90;;;;;;5026099;28;20427;-66
2023/06/20 08:41:10;;;;;;;;;;;25.60;99.90;;;;;;5023731;28;19926;-66
2023/06/20 08:43:37;;;;;;;;;;;25.60;99.90;;;;;;5027290;28;20177;-67
2023/06/20 08:46:04;;;;;;;;;;;25.70;99.90;;;;;;5026996;28;19932;-67
2023/06/20 08:48:36;;;;;;;;;;;25.80;99.90;;;;;;5023765;28;20020;-67
2023/06/20 08:51:08;;;;;;;;;;;25.80;99.90;;;;;;5022743;28;19953;-67
2023/06/20 08:53:36;;;;;;;;;;;25.90;99.90;;;;;;5021679;28;19929;-66
2023/06/20 08:56:02;;;;;;;;;;;26.00;99.90;;;;;;5023215;28;20308;-67
2023/06/20 08:58:34;;;;;;;;;;;26.20;99.90;;;;;;5021644;28;19930;-67
2023/06/20 09:01:07;;;;;;;;;;;26.30;99.90;;;;;;5026963;28;20474;-66
2023/06/20 09:03:39;;;;;;;;;;;26.40;99.90;;;;;;5026636;28;19925;-67
2023/06/20 09:06:06;;;;;;;;;;;26.50;99.90;;;;;;5024302;28;19925;-67
2023/06/20 09:08:43;;;;;;;;;;;26.50;99.90;;;;;;5026043;28;20330;-66
2023/06/20 09:11:15;;;;;;;;;;;26.60;99.90;;;;;;5017318;28;19929;-66
2023/06/20 09:13:46;;;;;;;;;;;26.80;99.90;;;;;;5028175;28;20446;-66
2023/06/20 09:16:18;;;;;;;;;;;27.00;99.90;;;;;;5024754;28;20025;-67
2023/06/20 09:18:50;;;;;;;;;;;27.10;99.90;;;;;;5017632;28;19933;-66
2023/06/20 09:21:23;;;;;;;;;;;27.30;99.90;;;;;;5023496;28;20389;-66
2023/06/20 09:24:00;;;;;;;;;;;27.40;99.90;;;;;;5025784;28;19980;-66
2023/06/20 09:26:28;;;;;;;;;;;27.50;99.90;;;;;;5040140;28;20016;-66
2023/06/20 09:29:10;;;;;;;;;;;27.60;99.90;;;;;;5022530;28;19929;-66
2023/06/20 09:31:43;;;;;;;;;;;27.60;99.90;;;;;;5009163;28;19936;-66
2023/06/20 09:34:18;;;;;;;;;;;27.70;99.90;;;;;;5021755;28;19925;-66
2023/06/20 09:36:50;;;;;;;;;;;27.80;99.90;;;;;;5020536;28;20459;-66
2023/06/20 09:39:23;;;;;;;;;;;27.80;99.50;;;;;;5029558;28;19929;-66
2023/06/20 09:41:55;;;;;;;;;;;27.90;99.30;;;;;;5021116;28;20008;-66
2023/06/20 09:44:28;;;;;;;;;;;28.00;98.70;;;;;;5029304;28;20308;-67
2023/06/20 09:47:00;;;;;;;;;;;28.20;99.60;;;;;;5022725;28;19968;-66
2023/06/20 09:49:33;;;;;;;;;;;28.20;99.50;;;;;;5024956;28;20417;-66
2023/06/20 09:52:14;;;;;;;;;;;28.40;98.70;;;;;;5029762;28;19959;-66
2023/06/20 09:54:45;;;;;;;;;;;28.50;98.20;;;;;;5025575;28;19929;-66
2023/06/20 09:57:20;;;;;;;;;;;28.70;98.00;;;;;;5024409;28;19929;-66
2023/06/20 09:59:54;;;;;;;;;;;28.80;97.50;;;;;;5018653;28;20397;-66
2023/06/20 10:02:27;;;;;;;;;;;29.00;97.10;;;;;;5017373;28;19941;-66
2023/06/20 10:04:59;;;;;;;;;;;29.10;97.40;;;;;;5029421;28;19932;-69
2023/06/20 10:07:31;;;;;;;;;;;29.20;96.90;;;;;;5021538;28;20498;-66
2023/06/20 10:10:03;;;;;;;;;;;29.20;95.70;;;;;;5022039;28;19936;-66
2023/06/20 10:12:35;;;;;;;;;;;29.10;96.20;;;;;;5028119;28;20337;-66
2023/06/20 10:15:08;;;;;;;;;;;29.30;95.00;;;;;;5028833;28;19975;-68
2023/06/20 10:17:41;;;;;;;;;;;29.50;94.60;;;;;;5012594;28;19929;-70
2023/06/20 10:20:26;;;;;;;;;;;29.60;93.50;;;;;;5026346;28;19932;-68
2023/06/20 10:23:03;;;;;;;;;;;29.60;93.60;;;;;;5024350;28;20016;-67
2023/06/20 10:25:47;;;;;;;;;;;29.70;94.00;;;;;;5023048;28;19932;-68
2023/06/20 10:28:20;;;;;;;;;;;29.80;93.40;;;;;;5028709;28;19936;-68
2023/06/20 10:31:00;;;;;;;;;;;30.00;94.70;;;;;;5028497;28;20420;-66
2023/06/20 10:33:32;;;;;;;;;;;30.10;92.50;;;;;;5023867;28;20033;-68
2023/06/20 10:36:03;;;;;;;;;;;30.20;91.50;;;;;;5028720;28;19925;-68
2023/06/20 10:38:37;;;;;;;;;;;30.30;91.10;;;;;;5027516;28;20008;-66
2023/06/20 10:41:09;;;;;;;;;;;30.30;91.00;;;;;;5024627;28;20320;-66
2023/06/20 10:43:47;;;;;;;;;;;30.50;90.70;;;;;;5011112;28;19961;-66
2023/06/20 10:46:21;;;;;;;;;;;30.60;89.60;;;;;;5026671;28;19929;-66
2023/06/20 10:48:52;;;;;;;;;;;30.60;90.20;;;;;;5024572;28;20023;-66
2023/06/20 10:51:25;;;;;;;;;;;30.70;90.30;;;;;;5022969;28;19925;-66
2023/06/20 10:53:52;;;;;;;;;;;30.70;88.60;;;;;;5020829;28;19925;-66
2023/06/20 10:56:25;;;;;;;;;;;30.60;86.10;;;;;;5024222;28;19929;-66
2023/06/20 10:58:56;;;;;;;;;;;30.70;84.50;;;;;;5022496;28;19932;-65
2023/06/20 11:01:28;;;;;;;;;;;30.70;84.70;;;;;;5021669;28;19932;-66
2023/06/20 11:04:01;;;;;;;;;;;30.70;83.20;;;;;;5011562;28;19929;-66
2023/06/20 11:06:28;;;;;;;;;;;30.60;84.10;;;;;;5022855;28;19957;-66
2023/06/20 11:08:56;;;;;;;;;;;30.70;83.00;;;;;;5027478;28;19936;-66
2023/06/20 11:11:46;;;;;;;;;;;31.00;83.00;;;;;;5022106;28;19935;-66
2023/06/20 11:14:19;;;;;;;;;;;31.20;83.60;;;;;;5022202;28;19938;-66
2023/06/20 11:16:51;;;;;;;;;;;31.40;81.70;;;;;;5023849;28;19925;-67
2023/06/20 11:19:26;;;;;;;;;;;31.60;79.30;;;;;;5024117;28;20420;-66
2023/06/20 11:21:59;;;;;;;;;;;31.50;80.20;;;;;;5022504;28;19992;-66
2023/06/20 11:24:25;;;;;;;;;;;31.40;78.70;;;;;;5025653;28;20015;-66
2023/06/20 11:27:11;;;;;;;;;;;31.40;79.50;;;;;;5029353;28;19936;-67
2023/06/20 11:29:45;;;;;;;;;;;31.30;78.80;;;;;;5025041;28;19933;-67
2023/06/20 11:32:12;;;;;;;;;;;31.40;77.50;;;;;;5028634;28;19925;-66
2023/06/20 11:34:53;;;;;;;;;;;31.40;77.60;;;;;;5026974;28;19929;-67
2023/06/20 11:37:25;;;;;;;;;;;31.60;77.40;;;;;;5030881;28;19932;-67
2023/06/20 11:39:58;;;;;;;;;;;31.90;75.70;;;;;;5028790;28;19933;-66
2023/06/20 11:42:33;;;;;;;;;;;32.10;76.70;;;;;;5022672;28;19925;-66
2023/06/20 11:45:08;;;;;;;;;;;32.30;73.70;;;;;;5024698;28;20278;-66
2023/06/20 11:47:42;;;;;;;;;;;32.30;75.00;;;;;;5028283;28;19965;-66
2023/06/20 11:50:23;;;;;;;;;;;32.30;72.40;;;;;;5025388;28;19984;-67
2023/06/20 11:52:57;;;;;;;;;;;32.30;75.40;;;;;;5025633;28;19925;-66
2023/06/20 11:55:46;;;;;;;;;;;32.50;74.50;;;;;;5030390;28;20392;-67
2023/06/20 11:58:18;;;;;;;;;;;32.60;73.10;;;;;;5029346;28;19979;-66
2023/06/20 12:00:59;;;;;;;;;;;32.80;73.50;;;;;;5028354;28;20380;-66
2023/06/20 12:03:31;;;;;;;;;;;32.80;71.10;;;;;;5028056;28;19925;-66
2023/06/20 12:06:22;;;;;;;;;;;32.70;69.70;;;;;;5025592;28;19933;-66
2023/06/20 12:08:59;;;;;;;;;;;32.70;70.50;;;;;;5024651;28;20484;-66
2023/06/20 12:11:31;;;;;;;;;;;32.80;71.00;;;;;;5027014;28;20433;-66
2023/06/20 12:13:57;;;;;;;;;;;33.00;71.40;;;;;;5021817;28;19929;-66
2023/06/20 12:16:24;;;;;;;;;;;33.10;70.70;;;;;;5029281;28;19929;-66
2023/06/20 12:18:51;;;;;;;;;;;33.30;71.60;;;;;;5025502;28;20008;-66
2023/06/20 12:21:23;;;;;;;;;;;33.40;72.00;;;;;;5027866;28;19929;-66
2023/06/20 12:23:55;;;;;;;;;;;33.60;69.40;;;;;;5028435;28;20408;-66
2023/06/20 12:26:27;;;;;;;;;;;33.30;66.50;;;;;;5024878;28;19991;-66
2023/06/20 12:28:59;;;;;;;;;;;33.20;66.30;;;;;;5020212;28;19925;-66
2023/06/20 12:31:25;;;;;;;;;;;33.10;67.80;;;;;;5017185;28;20432;-66
2023/06/20 12:33:57;;;;;;;;;;;33.00;68.50;;;;;;5021876;28;19933;-66
2023/06/20 12:36:31;;;;;;;;;;;33.10;69.60;;;;;;5027968;28;19932;-66
2023/06/20 12:39:03;;;;;;;;;;;33.20;68.30;;;;;;5029637;28;20052;-66
2023/06/20 12:41:35;;;;;;;;;;;33.40;68.80;;;;;;5029668;28;20020;-66
2023/06/20 12:44:07;;;;;;;;;;;33.40;68.40;;;;;;5027674;28;19965;-66
2023/06/20 12:46:41;;;;;;;;;;;33.50;69.60;;;;;;5023397;28;19929;-66
2023/06/20 12:49:12;;;;;;;;;;;33.60;66.80;;;;;;5022999;28;20315;-66
2023/06/20 12:51:39;;;;;;;;;;;33.60;69.10;;;;;;5027539;28;20711;-66
2023/06/20 12:54:11;;;;;;;;;;;33.80;69.30;;;;;;5022272;28;19924;-67
2023/06/20 12:56:40;;;;;;;;;;;33.90;67.40;;;;;;5026482;28;19979;-66
2023/06/20 12:59:12;;;;;;;;;;;33.80;65.60;;;;;;5027643;28;19925;-66
2023/06/20 13:01:39;;;;;;;;;;;33.70;66.40;;;;;;5026441;28;19975;-66
2023/06/20 13:04:11;;;;;;;;;;;33.80;66.90;;;;;;5024357;28;19932;-66
2023/06/20 13:06:43;;;;;;;;;;;34.00;67.60;;;;;;5029919;28;19925;-66
2023/06/20 13:09:15;;;;;;;;;;;34.30;63.50;;;;;;5028655;28;19931;-66
2023/06/20 13:11:47;;;;;;;;;;;34.50;63.90;;;;;;5026034;28;19929;-66
2023/06/20 13:14:19;;;;;;;;;;;34.50;63.20;;;;;;5022770;28;19929;-66
2023/06/20 13:16:50;;;;;;;;;;;34.60;63.70;;;;;;5029769;28;19933;-66
2023/06/20 13:19:22;;;;;;;;;;;34.70;62.60;;;;;;5029855;28;19964;-66
2023/06/20 13:21:49;;;;;;;;;;;34.90;64.30;;;;;;5025725;28;19925;-66
2023/06/20 13:24:21;;;;;;;;;;;34.90;62.10;;;;;;5029039;28;19937;-66
2023/06/20 13:26:53;;;;;;;;;;;35.10;62.60;;;;;;5028182;28;19933;-68
2023/06/20 13:29:24;;;;;;;;;;;35.20;62.40;;;;;;5012242;28;19929;-66
2023/06/20 13:31:56;;;;;;;;;;;35.30;61.20;;;;;;5027695;28;20404;-66
2023/06/20 13:34:28;;;;;;;;;;;35.40;60.90;;;;;;5028242;28;20432;-66
2023/06/20 13:37:00;;;;;;;;;;;35.60;61.20;;;;;;5029963;28;19933;-66
2023/06/20 13:39:28;;;;;;;;;;;35.60;60.00;;;;;;5028825;28;20380;-66
2023/06/20 13:41:59;;;;;;;;;;;35.70;59.80;;;;;;5026244;28;19983;-65
2023/06/20 13:44:31;;;;;;;;;;;35.80;60.00;;;;;;5023999;28;19925;-66
2023/06/20 13:46:59;;;;;;;;;;;35.80;58.70;;;;;;5026714;28;19979;-66
2023/06/20 13:49:30;;;;;;;;;;;35.80;58.90;;;;;;5021729;28;19931;-66
2023/06/20 13:52:02;;;;;;;;;;;35.90;57.10;;;;;;5025492;28;19933;-66
2023/06/20 13:54:34;;;;;;;;;;;35.80;57.60;;;;;;5026473;28;20011;-66
2023/06/20 13:57:06;;;;;;;;;;;35.60;57.50;;;;;;5023657;28;19925;-66
2023/06/20 13:59:33;;;;;;;;;;;35.70;58.60;;;;;;5025245;28;19925;-67
2023/06/20 14:02:07;;;;;;;;;;;35.80;58.10;;;;;;5027002;28;20225;-66
2023/06/20 14:04:39;;;;;;;;;;;35.80;57.20;;;;;;5026386;28;19983;-66
2023/06/20 14:07:11;;;;;;;;;;;36.10;57.10;;;;;;5025924;28;19936;-68
2023/06/20 14:09:43;;;;;;;;;;;36.40;57.80;;;;;;5027191;28;19964;-69
2023/06/20 14:12:14;;;;;;;;;;;36.50;55.70;;;;;;5025779;28;19961;-66
2023/06/20 14:14:46;;;;;;;;;;;36.70;57.00;;;;;;5024318;28;19965;-66
2023/06/20 14:17:18;;;;;;;;;;;37.00;56.40;;;;;;5031126;28;19931;-66
2023/06/20 14:19:50;;;;;;;;;;;37.20;57.20;;;;;;5026132;28;19929;-68
2023/06/20 14:22:21;;;;;;;;;;;37.40;55.60;;;;;;5023453;28;19929;-68
2023/06/20 14:24:53;;;;;;;;;;;37.50;55.00;;;;;;5023381;28;20768;-69
2023/06/20 14:27:26;;;;;;;;;;;37.30;54.40;;;;;;5024161;28;20023;-66
2023/06/20 14:29:59;;;;;;;;;;;37.40;54.60;;;;;;5024524;28;20459;-68
2023/06/20 14:32:31;;;;;;;;;;;37.40;54.90;;;;;;5018996;28;19925;-66
2023/06/20 14:35:03;;;;;;;;;;;37.40;54.00;;;;;;5028301;28;19932;-66
2023/06/20 14:37:35;;;;;;;;;;;37.50;55.10;;;;;;5025075;28;20480;-66
2023/06/20 14:40:07;;;;;;;;;;;37.60;54.10;;;;;;5020805;28;20355;-70
2023/06/20 14:42:39;;;;;;;;;;;37.80;54.20;;;;;;5019612;28;19929;-68
2023/06/20 14:45:11;;;;;;;;;;;37.90;54.00;;;;;;5029018;28;20017;-68